createdAt,value
2022-10-01T00:00:27.129Z,8.88
2022-10-01T00:02:53.726Z,7.63
2022-10-01T00:05:20.704Z,7.63
2022-10-01T00:07:48.743Z,7.07
2022-10-01T00:10:16.120Z,7.93
2022-10-01T00:12:45.721Z,8.40
2022-10-01T00:15:13.719Z,6.88
2022-10-01T00:17:40.653Z,8.43
2022-10-01T00:20:14.186Z,6.30
2022-10-01T00:22:41.513Z,8.55
2022-10-01T00:25:09.796Z,6.57
2022-10-01T00:27:36.308Z,7.30
2022-10-01T00:30:03.751Z,6.22
2022-10-01T00:32:30.692Z,5.73
2022-10-01T00:34:57.193Z,7.32
2022-10-01T00:37:23.819Z,6.93
2022-10-01T00:39:50.366Z,7.22
2022-10-01T00:42:19.949Z,6.10
2022-10-01T00:44:46.704Z,5.07
2022-10-01T00:47:23.763Z,7.15
2022-10-01T00:49:55.403Z,6.35
2022-10-01T00:52:28.338Z,5.90
2022-10-01T00:54:59.091Z,5.45
2022-10-01T00:57:27.635Z,5.33
2022-10-01T00:59:58.493Z,6.25
2022-10-01T01:02:25.258Z,6.45
2022-10-01T01:04:51.827Z,6.15
2022-10-01T01:07:19.166Z,5.78
2022-10-01T01:09:47.671Z,6.60
2022-10-01T01:12:34.842Z,6.18
2022-10-01T01:15:12.634Z,6.13
2022-10-01T01:17:45.102Z,6.65
2022-10-01T01:20:27.875Z,6.22
2022-10-01T01:23:05.236Z,5.57
2022-10-01T01:25:41.620Z,7.75
2022-10-01T01:28:21.316Z,6.85
2022-10-01T01:30:49.823Z,6.55
2022-10-01T01:33:20.383Z,5.90
2022-10-01T01:35:51.425Z,5.27
2022-10-01T01:38:21.676Z,5.45
2022-10-01T01:40:51.188Z,7.80
2022-10-01T01:43:24.511Z,7.18
2022-10-01T01:45:52.989Z,7.75
2022-10-01T01:48:19.540Z,5.90
2022-10-01T01:50:50.646Z,9.33
2022-10-01T01:53:17.445Z,5.78
2022-10-01T01:55:45.036Z,6.15
2022-10-01T01:58:12.130Z,6.03
2022-10-01T02:00:40.008Z,6.10
2022-10-01T02:03:07.347Z,5.73
2022-10-01T02:05:42.531Z,5.88
2022-10-01T02:08:28.450Z,6.55
2022-10-01T02:11:09.708Z,6.55
2022-10-01T02:13:46.374Z,7.25
2022-10-01T02:16:24.047Z,6.97
2022-10-01T02:18:56.446Z,6.03
2022-10-01T02:21:28.346Z,6.15
2022-10-01T02:23:58.999Z,8.40
2022-10-01T02:26:28.694Z,7.28
2022-10-01T02:29:00.339Z,6.20
2022-10-01T02:31:30.585Z,7.10
2022-10-01T02:34:01.058Z,7.05
2022-10-01T02:36:28.987Z,6.40
2022-10-01T02:38:56.906Z,5.85
2022-10-01T02:41:27.159Z,6.70
2022-10-01T02:43:58.187Z,8.43
2022-10-01T02:46:33.031Z,6.40
2022-10-01T02:48:59.727Z,5.90
2022-10-01T02:51:38.742Z,7.03
2022-10-01T02:54:13.657Z,6.43
2022-10-01T02:56:48.308Z,6.32
2022-10-01T02:59:15.318Z,7.13
2022-10-01T03:01:43.345Z,7.32
2022-10-01T03:04:09.868Z,6.97
2022-10-01T03:06:36.394Z,8.10
2022-10-01T03:09:03.246Z,7.35
2022-10-01T03:11:29.783Z,5.97
2022-10-01T03:13:56.258Z,7.72
2022-10-01T03:16:22.884Z,6.30
2022-10-01T03:18:50.804Z,8.30
2022-10-01T03:21:17.414Z,6.82
2022-10-01T03:23:44.139Z,7.40
2022-10-01T03:26:10.646Z,7.03
2022-10-01T03:28:37.262Z,6.45
2022-10-01T03:31:07.983Z,6.23
2022-10-01T03:33:34.862Z,6.00
2022-10-01T03:36:03.420Z,5.90
2022-10-01T03:38:30.400Z,5.93
2022-10-01T03:40:57.528Z,6.90
2022-10-01T03:43:24.036Z,6.30
2022-10-01T03:45:50.612Z,6.15
2022-10-01T03:48:17.171Z,7.50
2022-10-01T03:50:43.887Z,6.20
2022-10-01T03:53:11.759Z,6.47
2022-10-01T03:55:38.248Z,6.07
2022-10-01T03:58:04.840Z,5.20
2022-10-01T04:00:31.348Z,6.60
2022-10-01T04:02:57.879Z,6.40
2022-10-01T04:05:24.411Z,6.53
2022-10-01T04:07:51.002Z,6.13
2022-10-01T04:10:19.097Z,5.97
2022-10-01T04:12:45.628Z,5.45
2022-10-01T04:15:12.124Z,6.07
2022-10-01T04:17:41.578Z,5.65
2022-10-01T04:20:10.475Z,6.97
2022-10-01T04:22:39.175Z,6.73
2022-10-01T04:25:07.114Z,6.40
2022-10-01T04:27:34.949Z,7.60
2022-10-01T04:30:01.496Z,6.85
2022-10-01T04:32:28.067Z,7.07
2022-10-01T04:34:54.564Z,6.17
2022-10-01T04:37:22.045Z,7.65
2022-10-01T04:39:49.076Z,8.07
2022-10-01T04:42:15.935Z,7.68
2022-10-01T04:44:43.884Z,8.23
2022-10-01T04:47:10.677Z,7.27
2022-10-01T04:49:37.188Z,8.00
2022-10-01T04:52:04.269Z,7.07
2022-10-01T04:54:31.132Z,7.22
2022-10-01T04:56:57.785Z,7.00
2022-10-01T04:59:24.290Z,7.53
2022-10-01T05:01:52.334Z,8.68
2022-10-01T05:04:18.975Z,8.18
2022-10-01T05:06:45.501Z,7.63
2022-10-01T05:09:12.139Z,7.10
2022-10-01T05:11:38.644Z,8.43
2022-10-01T05:14:05.245Z,7.20
2022-10-01T05:16:32.038Z,8.10
2022-10-01T05:18:59.910Z,7.53
2022-10-01T05:21:26.508Z,8.50
2022-10-01T05:23:53.004Z,7.10
2022-10-01T05:26:19.631Z,11.20
2022-10-01T05:28:46.139Z,7.55
2022-10-01T05:31:13.082Z,7.88
2022-10-01T05:33:40.472Z,7.47
2022-10-01T05:36:08.299Z,7.90
2022-10-01T05:38:34.791Z,8.70
2022-10-01T05:41:01.468Z,6.75
2022-10-01T05:43:27.962Z,8.50
2022-10-01T05:45:54.530Z,7.43
2022-10-01T05:48:21.024Z,7.27
2022-10-01T05:50:47.577Z,7.25
2022-10-01T05:53:15.435Z,9.48
2022-10-01T05:55:42.071Z,7.30
2022-10-01T05:58:10.082Z,6.00
2022-10-01T06:00:38.530Z,6.30
2022-10-01T06:03:05.890Z,6.50
2022-10-01T06:05:34.099Z,5.20
2022-10-01T06:08:01.253Z,6.90
2022-10-01T06:10:29.224Z,6.57
2022-10-01T06:12:58.700Z,6.73
2022-10-01T06:15:25.452Z,6.90
2022-10-01T06:17:51.946Z,6.60
2022-10-01T06:20:18.936Z,7.43
2022-10-01T06:22:53.792Z,8.02
2022-10-01T06:25:20.676Z,9.27
2022-10-01T06:27:53.192Z,5.13
2022-10-01T06:30:19.804Z,5.20
2022-10-01T06:32:46.475Z,5.38
2022-10-01T06:35:13.283Z,5.30
2022-10-01T06:37:39.869Z,5.20
2022-10-01T06:40:07.404Z,4.70
2022-10-01T06:42:33.937Z,4.40
2022-10-01T06:45:01.935Z,4.93
2022-10-01T06:47:28.550Z,4.28
2022-10-01T06:49:57.655Z,4.37
2022-10-01T06:52:24.361Z,4.68
2022-10-01T06:54:50.870Z,5.03
2022-10-01T06:57:17.412Z,4.95
2022-10-01T06:59:44.030Z,4.88
2022-10-01T07:02:22.214Z,4.90
2022-10-01T07:04:48.766Z,4.55
2022-10-01T07:07:15.388Z,4.88
2022-10-01T07:09:41.888Z,4.80
2022-10-01T07:12:08.395Z,4.32
2022-10-01T07:14:34.897Z,4.93
2022-10-01T07:17:01.392Z,4.25
2022-10-01T07:19:29.390Z,4.32
2022-10-01T07:21:55.907Z,4.35
2022-10-01T07:24:22.411Z,4.78
2022-10-01T07:26:48.931Z,4.87
2022-10-01T07:29:15.439Z,4.65
2022-10-01T07:31:42.215Z,3.72
2022-10-01T07:34:08.863Z,4.28
2022-10-01T07:36:36.731Z,4.35
2022-10-01T07:39:03.402Z,3.73
2022-10-01T07:41:29.890Z,3.90
2022-10-01T07:43:56.417Z,3.70
2022-10-01T07:46:23.149Z,3.92
2022-10-01T07:48:49.902Z,4.00
2022-10-01T07:51:16.382Z,3.63
2022-10-01T07:53:44.359Z,4.15
2022-10-01T07:56:10.863Z,4.57
2022-10-01T07:58:37.482Z,3.67
2022-10-01T08:01:04.574Z,3.83
2022-10-01T08:03:31.142Z,3.73
2022-10-01T08:05:57.669Z,3.45
2022-10-01T08:08:24.147Z,3.42
2022-10-01T08:10:52.054Z,4.25
2022-10-01T08:13:18.950Z,3.90
2022-10-01T08:15:46.978Z,5.43
2022-10-01T08:18:14.086Z,3.67
2022-10-01T08:20:40.624Z,5.45
2022-10-01T08:23:10.196Z,3.90
2022-10-01T08:25:37.398Z,3.83
2022-10-01T08:28:05.558Z,4.17
2022-10-01T08:30:32.199Z,4.70
2022-10-01T08:33:00.385Z,3.88
2022-10-01T08:35:28.616Z,4.40
2022-10-01T08:37:55.121Z,4.10
2022-10-01T08:40:22.559Z,3.40
2022-10-01T08:42:53.854Z,3.47
2022-10-01T08:45:27.039Z,5.15
2022-10-01T08:48:00.576Z,3.85
2022-10-01T08:50:41.732Z,4.03
2022-10-01T08:53:16.560Z,4.20
2022-10-01T08:55:44.122Z,4.40
2022-10-01T08:58:17.867Z,4.38
2022-10-01T09:00:48.357Z,5.00
2022-10-01T09:03:15.735Z,4.25
2022-10-01T09:05:53.740Z,4.13
2022-10-01T09:08:29.830Z,4.18
2022-10-01T09:11:00.324Z,4.43
2022-10-01T09:13:50.789Z,4.40
2022-10-01T09:16:25.468Z,5.00
2022-10-01T09:19:06.659Z,3.60
2022-10-01T09:21:49.696Z,4.38
2022-10-01T09:24:22.599Z,4.85
2022-10-01T09:26:49.114Z,4.47
2022-10-01T09:29:22.918Z,5.25
2022-10-01T09:31:53.925Z,3.90
2022-10-01T09:34:28.796Z,3.85
2022-10-01T09:37:05.059Z,4.75
2022-10-01T09:39:39.193Z,3.70
2022-10-01T09:42:05.893Z,4.05
2022-10-01T09:44:33.772Z,3.97
2022-10-01T09:47:01.722Z,4.38
2022-10-01T09:49:31.181Z,4.50
2022-10-01T09:52:04.021Z,5.20
2022-10-01T09:54:34.489Z,6.00
2022-10-01T09:57:07.766Z,5.90
2022-10-01T09:59:38.092Z,4.45
2022-10-01T10:02:15.983Z,6.60
2022-10-01T10:04:42.582Z,3.97
2022-10-01T10:07:17.459Z,4.65
2022-10-01T10:09:44.225Z,4.40
2022-10-01T10:12:26.656Z,4.20
2022-10-01T10:14:54.799Z,6.03
2022-10-01T10:17:22.866Z,4.88
2022-10-01T10:19:51.764Z,4.25
2022-10-01T10:22:22.536Z,4.43
2022-10-01T10:24:49.212Z,4.57
2022-10-01T10:27:24.746Z,4.38
2022-10-01T10:30:01.392Z,4.25
2022-10-01T10:32:29.538Z,4.05
2022-10-01T10:35:03.226Z,6.00
2022-10-01T10:37:32.783Z,3.95
2022-10-01T10:39:59.301Z,4.20
2022-10-01T10:42:26.250Z,4.40
2022-10-01T10:44:56.004Z,4.65
2022-10-01T10:47:23.365Z,3.77
2022-10-01T10:49:55.569Z,4.05
2022-10-01T10:52:27.994Z,4.40
2022-10-01T10:54:54.773Z,4.15
2022-10-01T10:57:24.539Z,4.15
2022-10-01T10:59:59.483Z,4.90
2022-10-01T11:02:27.758Z,5.18
2022-10-01T11:04:57.346Z,3.60
2022-10-01T11:07:26.800Z,4.30
2022-10-01T11:10:11.775Z,4.03
2022-10-01T11:12:54.045Z,4.30
2022-10-01T11:15:35.593Z,4.00
2022-10-01T11:18:33.183Z,5.15
2022-10-01T11:21:16.044Z,5.03
2022-10-01T11:23:56.595Z,4.45
2022-10-01T11:26:32.973Z,4.30
2022-10-01T11:29:12.229Z,4.40
2022-10-01T11:31:47.297Z,5.05
2022-10-01T11:34:41.346Z,4.95
2022-10-01T11:37:26.760Z,4.70
2022-10-01T11:39:58.116Z,4.27
2022-10-01T11:42:30.681Z,5.07
2022-10-01T11:45:03.169Z,5.20
2022-10-01T11:47:33.749Z,4.35
2022-10-01T11:50:04.526Z,4.40
2022-10-01T11:52:38.546Z,4.30
2022-10-01T11:55:13.889Z,3.60
2022-10-01T11:57:41.143Z,4.40
2022-10-01T12:00:10.923Z,4.68
2022-10-01T12:02:48.267Z,4.07
2022-10-01T12:05:18.238Z,4.10
2022-10-01T12:07:51.088Z,3.50
2022-10-01T12:10:31.595Z,4.00
2022-10-01T12:13:03.948Z,4.07
2022-10-01T12:15:33.994Z,4.82
2022-10-01T12:18:05.112Z,4.70
2022-10-01T12:20:36.385Z,4.47
2022-10-01T12:23:07.867Z,6.13
2022-10-01T12:25:43.365Z,3.95
2022-10-01T12:28:15.449Z,4.40
2022-10-01T12:30:50.592Z,3.57
2022-10-01T12:33:48.407Z,3.45
2022-10-01T12:36:25.886Z,3.65
2022-10-01T12:39:10.641Z,4.40
2022-10-01T12:41:48.839Z,3.15
2022-10-01T12:44:29.872Z,3.47
2022-10-01T12:47:08.903Z,2.72
2022-10-01T12:49:42.239Z,4.30
2022-10-01T12:52:18.517Z,4.07
2022-10-01T12:55:00.344Z,11.55
2022-10-01T12:57:39.357Z,10.60
2022-10-01T13:00:13.219Z,5.40
2022-10-01T13:03:31.882Z,5.88
2022-10-01T13:06:14.652Z,5.43
2022-10-01T13:08:51.471Z,4.47
2022-10-01T13:11:30.040Z,4.57
2022-10-01T13:13:57.293Z,5.35
2022-10-01T13:16:30.226Z,4.65
2022-10-01T13:19:06.648Z,4.28
2022-10-01T13:21:55.196Z,4.82
2022-10-01T13:24:28.761Z,4.57
2022-10-01T13:27:03.133Z,4.20
2022-10-01T13:29:43.423Z,5.15
2022-10-01T13:32:28.298Z,4.72
2022-10-01T13:34:55.729Z,5.15
2022-10-01T13:37:33.906Z,4.00
2022-10-01T13:40:01.161Z,4.97
2022-10-01T13:42:44.210Z,4.20
2022-10-01T13:45:23.735Z,4.47
2022-10-01T13:47:50.601Z,5.72
2022-10-01T13:50:23.743Z,3.67
2022-10-01T13:52:50.679Z,5.53
2022-10-01T13:55:27.289Z,5.25
2022-10-01T13:58:04.949Z,5.57
2022-10-01T14:00:32.006Z,4.70
2022-10-01T14:03:05.656Z,4.30
2022-10-01T14:05:37.191Z,3.72
2022-10-01T14:08:12.295Z,5.15
2022-10-01T14:10:44.612Z,5.50
2022-10-01T14:13:12.543Z,5.03
2022-10-01T14:15:43.777Z,4.57
2022-10-01T14:18:16.688Z,4.18
2022-10-01T14:20:55.675Z,4.63
2022-10-01T14:23:28.842Z,4.80
2022-10-01T14:26:01.670Z,3.53
2022-10-01T14:28:47.580Z,5.03
2022-10-01T14:31:23.371Z,6.00
2022-10-01T14:34:33.567Z,4.18
2022-10-01T14:37:00.733Z,4.05
2022-10-01T14:39:29.279Z,5.75
2022-10-01T14:41:57.637Z,4.40
2022-10-01T14:44:28.135Z,6.63
2022-10-01T14:46:56.423Z,4.25
2022-10-01T14:49:27.655Z,4.28
2022-10-01T14:52:00.248Z,5.53
2022-10-01T14:54:28.643Z,4.30
2022-10-01T14:56:55.399Z,5.95
2022-10-01T14:59:30.803Z,6.65
2022-10-01T15:02:00.279Z,5.07
2022-10-01T15:04:27.178Z,5.32
2022-10-01T15:06:54.148Z,9.20
2022-10-01T15:09:20.788Z,7.38
2022-10-01T15:11:49.483Z,5.40
2022-10-01T15:14:21.157Z,6.40
2022-10-01T15:16:49.323Z,6.65
2022-10-01T15:19:19.525Z,5.60
2022-10-01T15:21:50.095Z,6.03
2022-10-01T15:24:22.537Z,4.85
2022-10-01T15:26:50.911Z,4.88
2022-10-01T15:29:18.077Z,6.10
2022-10-01T15:31:47.297Z,5.73
2022-10-01T15:34:17.692Z,6.25
2022-10-01T15:36:45.717Z,5.57
2022-10-01T15:39:27.427Z,5.18
2022-10-01T15:41:54.915Z,4.50
2022-10-01T15:44:44.164Z,3.87
2022-10-01T15:47:31.539Z,7.07
2022-10-01T15:50:19.979Z,6.88
2022-10-01T15:52:51.258Z,5.38
2022-10-01T15:55:18.912Z,5.30
2022-10-01T15:57:45.500Z,5.13
2022-10-01T16:00:22.074Z,5.63
2022-10-01T16:02:49.094Z,6.13
2022-10-01T16:05:19.716Z,6.47
2022-10-01T16:07:48.118Z,7.72
2022-10-01T16:10:26.003Z,7.17
2022-10-01T16:12:52.610Z,7.80
2022-10-01T16:15:27.344Z,9.07
2022-10-01T16:17:55.896Z,8.68
2022-10-01T16:20:36.615Z,9.93
2022-10-01T16:23:51.956Z,9.13
2022-10-01T16:26:39.175Z,7.28
2022-10-01T16:29:18.742Z,6.47
2022-10-01T16:31:45.906Z,6.60
2022-10-01T16:34:14.081Z,8.05
2022-10-01T16:36:42.642Z,7.60
2022-10-01T16:39:09.273Z,8.70
2022-10-01T16:41:36.544Z,10.40
2022-10-01T16:44:04.977Z,7.25
2022-10-01T16:46:32.110Z,8.70
2022-10-01T16:48:58.902Z,9.40
2022-10-01T16:51:25.552Z,10.07
2022-10-01T16:53:54.633Z,9.73
2022-10-01T16:56:26.261Z,12.50
2022-10-01T16:58:53.653Z,8.30
2022-10-01T17:01:20.266Z,7.60
2022-10-01T17:03:46.962Z,11.10
2022-10-01T17:06:13.500Z,12.88
2022-10-01T17:08:40.022Z,11.20
2022-10-01T17:11:12.718Z,13.07
2022-10-01T17:13:39.435Z,11.83
2022-10-01T17:16:06.346Z,11.75
2022-10-01T17:18:32.990Z,10.55
2022-10-01T17:21:02.353Z,13.27
2022-10-01T17:23:28.839Z,14.30
2022-10-01T17:25:55.384Z,10.13
2022-10-01T17:28:23.323Z,11.25
2022-10-01T17:30:49.937Z,11.52
2022-10-01T17:33:18.559Z,8.10
2022-10-01T17:35:47.741Z,11.13
2022-10-01T17:38:14.259Z,9.33
2022-10-01T17:40:41.291Z,10.07
2022-10-01T17:43:10.703Z,11.23
2022-10-01T17:45:38.744Z,10.27
2022-10-01T17:48:05.448Z,12.77
2022-10-01T17:50:32.275Z,15.00
2022-10-01T17:52:59.079Z,12.43
2022-10-01T17:55:25.838Z,11.05
2022-10-01T17:57:52.392Z,10.75
2022-10-01T18:00:19.626Z,9.25
2022-10-01T18:02:47.611Z,9.30
2022-10-01T18:05:14.540Z,10.93
2022-10-01T18:07:41.794Z,11.15
2022-10-01T18:10:11.520Z,8.85
2022-10-01T18:12:38.200Z,9.48
2022-10-01T18:15:05.919Z,7.77
2022-10-01T18:17:33.100Z,9.77
2022-10-01T18:20:01.563Z,11.38
2022-10-01T18:22:28.575Z,9.48
2022-10-01T18:24:55.223Z,8.82
2022-10-01T18:27:21.988Z,9.53
2022-10-01T18:29:48.503Z,8.70
2022-10-01T18:32:18.654Z,10.23
2022-10-01T18:34:49.388Z,7.55
2022-10-01T18:37:26.010Z,9.05
2022-10-01T18:39:58.420Z,8.50
2022-10-01T18:42:41.172Z,10.90
2022-10-01T18:45:15.612Z,7.43
2022-10-01T18:47:54.139Z,8.98
2022-10-01T18:50:32.537Z,8.30
2022-10-01T18:53:17.454Z,8.57
2022-10-01T18:56:03.065Z,8.38
2022-10-01T18:58:48.001Z,5.82
2022-10-01T19:01:26.633Z,7.28
2022-10-01T19:04:25.660Z,9.43
2022-10-01T19:07:05.729Z,8.30
2022-10-01T19:09:42.262Z,8.38
2022-10-01T19:12:29.197Z,8.52
2022-10-01T19:15:05.728Z,9.00
2022-10-01T19:17:49.323Z,7.20
2022-10-01T19:20:28.344Z,11.57
2022-10-01T19:23:14.129Z,11.00
2022-10-01T19:25:48.295Z,8.52
2022-10-01T19:28:29.567Z,7.70
2022-10-01T19:31:05.384Z,9.40
2022-10-01T19:33:39.774Z,8.40
2022-10-01T19:36:14.356Z,8.38
2022-10-01T19:38:45.010Z,10.05
2022-10-01T19:41:18.500Z,10.25
2022-10-01T19:43:52.485Z,8.93
2022-10-01T19:46:23.083Z,9.17
2022-10-01T19:48:57.472Z,9.73
2022-10-01T19:51:30.038Z,7.30
2022-10-01T19:53:59.748Z,7.70
2022-10-01T19:56:30.187Z,12.85
2022-10-01T19:58:57.932Z,9.03
2022-10-01T20:01:32.568Z,11.48
2022-10-01T20:04:01.952Z,10.18
2022-10-01T20:06:32.377Z,12.35
2022-10-01T20:09:02.979Z,10.90
2022-10-01T20:11:37.223Z,9.83
2022-10-01T20:14:20.240Z,8.68
2022-10-01T20:16:52.772Z,9.27
2022-10-01T20:19:27.612Z,9.27
2022-10-01T20:22:00.942Z,9.35
2022-10-01T20:24:40.394Z,8.80
2022-10-01T20:27:18.934Z,9.70
2022-10-01T20:29:54.017Z,10.20
2022-10-01T20:32:27.184Z,10.65
2022-10-01T20:35:09.536Z,8.63
2022-10-01T20:37:48.124Z,9.77
2022-10-01T20:40:18.476Z,10.80
2022-10-01T20:42:49.694Z,8.82
2022-10-01T20:45:21.220Z,8.02
2022-10-01T20:47:52.920Z,8.60
2022-10-01T20:50:24.705Z,11.63
2022-10-01T20:53:01.367Z,9.23
2022-10-01T20:55:36.107Z,10.93
2022-10-01T20:58:09.210Z,10.23
2022-10-01T21:00:37.967Z,9.85
2022-10-01T21:03:14.610Z,9.73
2022-10-01T21:05:43.275Z,11.75
2022-10-01T21:08:23.404Z,8.68
2022-10-01T21:10:53.731Z,13.30
2022-10-01T21:13:33.095Z,10.18
2022-10-01T21:16:12.230Z,9.07
2022-10-01T21:18:46.676Z,9.05
2022-10-01T21:21:21.971Z,10.55
2022-10-01T21:24:03.206Z,9.55
2022-10-01T21:26:41.552Z,9.93
2022-10-01T21:29:26.696Z,10.37
2022-10-01T21:32:05.621Z,11.68
2022-10-01T21:34:46.700Z,8.35
2022-10-01T21:37:16.115Z,9.18
2022-10-01T21:39:56.180Z,11.25
2022-10-01T21:42:35.025Z,8.10
2022-10-01T21:45:30.790Z,9.00
2022-10-01T21:48:11.598Z,9.77
2022-10-01T21:50:50.002Z,11.57
2022-10-01T21:53:30.448Z,11.32
2022-10-01T21:56:18.208Z,11.37
2022-10-01T21:59:02.678Z,9.43
2022-10-01T22:01:45.746Z,12.55
2022-10-01T22:04:17.952Z,8.20
2022-10-01T22:06:50.225Z,12.32
2022-10-01T22:09:22.518Z,11.60
2022-10-01T22:11:53.289Z,10.10
2022-10-01T22:14:21.611Z,10.95
2022-10-01T22:16:53.731Z,12.00
2022-10-01T22:19:25.578Z,8.80
2022-10-01T22:21:57.212Z,11.10
2022-10-01T22:24:29.770Z,10.98
2022-10-01T22:27:04.950Z,10.52
2022-10-01T22:29:35.937Z,11.63
2022-10-01T22:32:05.029Z,11.30
2022-10-01T22:34:37.085Z,9.63
2022-10-01T22:37:07.418Z,11.50
2022-10-01T22:39:40.036Z,14.68
2022-10-01T22:42:12.608Z,10.45
2022-10-01T22:44:39.136Z,11.98
2022-10-01T22:47:43.986Z,8.43
2022-10-01T22:50:22.604Z,11.88
2022-10-01T22:53:01.627Z,15.45
2022-10-01T22:55:37.169Z,12.13
2022-10-01T22:58:23.466Z,8.27
2022-10-01T23:00:58.642Z,11.07
2022-10-01T23:03:38.262Z,11.35
2022-10-01T23:06:11.156Z,9.93
2022-10-01T23:08:45.336Z,13.82
2022-10-01T23:11:21.627Z,10.18
2022-10-01T23:14:00.026Z,10.83
2022-10-01T23:16:36.212Z,10.82
2022-10-01T23:19:21.400Z,10.65
2022-10-01T23:21:57.717Z,9.85
2022-10-01T23:24:38.183Z,13.48
2022-10-01T23:27:11.097Z,10.37
2022-10-01T23:29:55.172Z,12.63
2022-10-01T23:32:39.663Z,11.20
2022-10-01T23:35:13.445Z,10.48
2022-10-01T23:38:12.541Z,10.40
2022-10-01T23:40:41.615Z,9.13
2022-10-01T23:43:16.300Z,10.65
2022-10-01T23:45:49.258Z,10.95
2022-10-01T23:48:20.938Z,12.07
2022-10-01T23:50:55.346Z,15.15
2022-10-01T23:53:27.645Z,9.33
2022-10-01T23:56:02.138Z,10.82
2022-10-01T23:58:33.438Z,10.18
